Time;durP1;ratioP1;P1;durP2;ratioP2;P2;SDS_P1;SDS_P2;PMS_P1;PMS_P2;Temp;Humidity;BMP_temperature;BMP_pressure;BME280_temperature;BME280_humidity;BME280_pressure;Samples;Min_cycle;Max_cycle;Signal;HPM_P1;HPM_P2
2023/06/19 00:00:30;;;;;;;6.47;5.87;;;22.90;98.00;;;;;;5008002;28;20201;-80
2023/06/19 00:02:57;;;;;;;5.60;5.10;;;22.90;98.30;;;;;;5010284;28;20229;-79
2023/06/19 00:05:24;;;;;;;6.23;4.83;;;22.80;97.80;;;;;;5016357;28;20255;-80
2023/06/19 00:07:53;;;;;;;5.70;5.20;;;22.80;98.20;;;;;;5010100;28;20254;-80
2023/06/19 00:10:20;;;;;;;5.77;5.17;;;22.70;98.10;;;;;;5010483;28;20220;-79
2023/06/19 00:12:46;;;;;;;4.93;4.20;;;22.70;98.00;;;;;;5007676;28;20211;-80
2023/06/19 00:15:13;;;;;;;6.43;4.80;;;22.70;98.10;;;;;;5014988;28;20594;-79
2023/06/19 00:17:41;;;;;;;5.00;4.50;;;22.70;98.00;;;;;;5015215;28;20209;-80
2023/06/19 00:20:09;;;;;;;5.00;4.50;;;22.70;98.00;;;;;;5011856;28;20205;-78
2023/06/19 00:22:36;;;;;;;5.07;4.37;;;22.70;98.30;;;;;;5018866;28;20208;-79
2023/06/19 00:25:04;;;;;;;6.07;4.97;;;22.70;98.60;;;;;;5015885;28;20217;-81
2023/06/19 00:27:31;;;;;;;4.97;4.47;;;22.60;98.80;;;;;;5017325;28;20287;-79
2023/06/19 00:30:01;;;;;;;5.90;4.90;;;22.60;99.20;;;;;;5012677;28;20589;-79
2023/06/19 00:32:29;;;;;;;7.90;7.20;;;22.50;99.30;;;;;;5008955;28;20256;-80
2023/06/19 00:34:57;;;;;;;7.33;6.67;;;22.40;99.20;;;;;;5009703;28;20286;-81
2023/06/19 00:37:31;;;;;;;5.30;4.80;;;22.30;99.50;;;;;;5013385;28;20653;-80
2023/06/19 00:40:00;;;;;;;7.00;6.30;;;22.30;99.70;;;;;;5010724;28;20288;-80
2023/06/19 00:42:28;;;;;;;6.70;6.10;;;22.20;99.80;;;;;;5014254;28;20205;-79
2023/06/19 00:44:55;;;;;;;7.27;6.67;;;22.10;99.90;;;;;;5016651;28;20240;-79
2023/06/19 00:47:22;;;;;;;6.80;6.20;;;22.10;99.90;;;;;;5006774;28;20595;-79
2023/06/19 00:49:51;;;;;;;6.30;5.70;;;22.10;99.90;;;;;;5005489;28;20592;-80
2023/06/19 00:52:18;;;;;;;5.93;5.33;;;22.00;99.90;;;;;;5004747;28;20209;-80
2023/06/19 00:54:45;;;;;;;6.07;5.47;;;22.10;99.90;;;;;;5005944;28;20816;-80
2023/06/19 00:57:12;;;;;;;7.80;7.10;;;22.00;99.90;;;;;;5008782;28;20205;-80
2023/06/19 00:59:42;;;;;;;7.93;7.23;;;22.00;99.90;;;;;;5009918;28;20284;-80
2023/06/19 01:02:09;;;;;;;8.40;7.60;;;22.00;99.90;;;;;;5016706;28;20251;-80
2023/06/19 01:04:36;;;;;;;7.57;6.83;;;22.00;99.90;;;;;;5006487;28;20216;-78
2023/06/19 01:07:09;;;;;;;6.87;6.07;;;22.00;99.90;;;;;;5007202;28;20196;-79
2023/06/19 01:09:40;;;;;;;6.17;5.57;;;21.90;99.90;;;;;;5011022;28;20269;-79
2023/06/19 01:12:15;;;;;;;7.00;6.17;;;21.90;99.90;;;;;;5010042;28;20210;-80
2023/06/19 01:14:50;;;;;;;6.73;6.03;;;21.90;99.90;;;;;;5008425;28;20224;-78
2023/06/19 01:17:17;;;;;;;6.80;5.50;;;21.90;99.90;;;;;;5012442;28;20202;-80
2023/06/19 01:19:44;;;;;;;6.40;5.70;;;21.90;99.90;;;;;;5014451;28;20201;-80
2023/06/19 01:22:24;;;;;;;7.40;5.43;;;21.80;99.90;;;;;;5018951;28;20204;-79
2023/06/19 01:24:51;;;;;;;6.17;5.57;;;21.80;99.90;;;;;;5011027;28;20627;-78
2023/06/19 01:27:18;;;;;;;7.23;5.57;;;21.80;99.90;;;;;;5006898;28;20208;-78
2023/06/19 01:29:45;;;;;;;5.70;5.10;;;21.80;99.90;;;;;;5010915;28;20210;-80
2023/06/19 01:32:18;;;;;;;7.07;5.40;;;21.90;99.90;;;;;;5010867;28;20211;-79
2023/06/19 01:34:47;;;;;;;5.90;5.30;;;21.90;99.90;;;;;;5013112;28;20232;-80
2023/06/19 01:37:16;;;;;;;6.27;5.67;;;22.00;99.90;;;;;;5006984;28;20204;-79
2023/06/19 01:39:46;;;;;;;6.13;5.53;;;22.00;99.90;;;;;;5016746;28;20201;-79
2023/06/19 01:42:14;;;;;;;7.77;6.90;;;22.00;99.90;;;;;;5011756;28;20741;-79
2023/06/19 01:44:41;;;;;;;6.93;6.23;;;22.00;99.90;;;;;;5010060;28;20251;-79
2023/06/19 01:47:10;;;;;;;6.73;5.87;;;21.90;99.90;;;;;;5017466;28;20228;-79
2023/06/19 01:49:37;;;;;;;6.73;5.67;;;21.80;99.90;;;;;;5015563;28;20205;-78
2023/06/19 01:52:05;;;;;;;7.10;6.30;;;21.80;99.90;;;;;;5004020;28;20558;-80
2023/06/19 01:54:33;;;;;;;7.37;5.40;;;21.80;99.90;;;;;;5007030;28;20278;-78
2023/06/19 01:57:00;;;;;;;6.60;5.80;;;21.80;99.90;;;;;;5012668;28;20197;-78
2023/06/19 01:59:27;;;;;;;6.87;6.17;;;21.70;99.90;;;;;;5013895;28;20203;-80
2023/06/19 02:01:53;;;;;;;6.63;6.00;;;21.70;99.90;;;;;;5010168;28;20204;-78
2023/06/19 02:04:21;;;;;;;6.67;5.57;;;21.60;99.90;;;;;;5010823;28;20588;-80
2023/06/19 02:06:47;;;;;;;6.13;5.53;;;21.60;99.90;;;;;;5010042;28;20204;-79
2023/06/19 02:09:15;;;;;;;6.37;5.60;;;21.60;99.90;;;;;;5003446;28;20225;-80
2023/06/19 02:11:43;;;;;;;5.60;4.80;;;21.50;99.90;;;;;;5013482;28;20223;-79
2023/06/19 02:14:11;;;;;;;5.90;5.30;;;21.50;99.90;;;;;;5010988;28;20221;-79
2023/06/19 02:16:40;;;;;;;6.00;5.40;;;21.50;99.90;;;;;;5004998;28;20275;-79
2023/06/19 02:19:09;;;;;;;7.17;6.57;;;21.40;99.90;;;;;;5010411;28;20202;-79
2023/06/19 02:21:38;;;;;;;7.73;7.03;;;21.50;99.90;;;;;;5012357;28;20283;-80
2023/06/19 02:24:06;;;;;;;7.70;7.00;;;21.40;99.90;;;;;;5016496;28;20209;-79
2023/06/19 02:26:33;;;;;;;7.53;6.90;;;21.40;99.90;;;;;;5009197;28;20308;-80
2023/06/19 02:29:01;;;;;;;7.97;7.27;;;21.40;99.90;;;;;;5001547;28;20205;-80
2023/06/19 02:31:28;;;;;;;8.10;7.40;;;21.40;99.90;;;;;;5014233;28;20193;-81
2023/06/19 02:33:55;;;;;;;8.33;7.63;;;21.30;99.90;;;;;;5005694;28;20216;-79
2023/06/19 02:36:22;;;;;;;7.90;7.20;;;21.30;99.90;;;;;;5013506;28;20204;-80
2023/06/19 02:38:49;;;;;;;7.73;7.03;;;21.30;99.90;;;;;;5018108;28;20204;-80
2023/06/19 02:41:16;;;;;;;8.00;7.40;;;21.30;99.90;;;;;;5019253;28;20197;-79
2023/06/19 02:43:43;;;;;;;7.73;7.13;;;21.30;99.90;;;;;;5011457;28;20220;-78
2023/06/19 02:46:12;;;;;;;7.50;6.90;;;21.30;99.90;;;;;;5011964;28;20205;-80
2023/06/19 02:48:38;;;;;;;7.17;6.47;;;21.30;99.90;;;;;;5009799;28;20258;-80
2023/06/19 02:51:05;;;;;;;7.20;6.60;;;21.30;99.90;;;;;;5016795;28;20575;-80
2023/06/19 02:53:32;;;;;;;6.83;6.20;;;21.30;99.90;;;;;;5012655;28;20226;-81
2023/06/19 02:55:59;;;;;;;7.33;6.63;;;21.30;99.90;;;;;;5000490;28;20680;-78
2023/06/19 02:58:26;;;;;;;7.37;6.67;;;21.30;99.90;;;;;;5015862;28;20205;-79
2023/06/19 03:00:53;;;;;;;7.83;7.20;;;21.30;99.90;;;;;;5015145;28;20208;-79
2023/06/19 03:03:22;;;;;;;6.90;6.30;;;21.30;99.90;;;;;;5007691;28;20268;-77
2023/06/19 03:05:51;;;;;;;6.53;6.00;;;21.30;99.90;;;;;;5010717;28;20207;-79
2023/06/19 03:08:18;;;;;;;7.97;7.27;;;21.30;99.90;;;;;;5002379;28;20204;-79
2023/06/19 03:10:45;;;;;;;7.00;6.40;;;21.30;99.90;;;;;;5010257;28;20205;-80
2023/06/19 03:13:13;;;;;;;6.87;6.27;;;21.30;99.90;;;;;;5011120;28;20190;-78
2023/06/19 03:15:40;;;;;;;7.90;7.20;;;21.30;99.90;;;;;;5009427;28;20228;-82
2023/06/19 03:18:09;;;;;;;7.40;6.80;;;21.30;99.90;;;;;;5011015;28;20197;-79
2023/06/19 03:20:39;;;;;;;7.43;6.83;;;21.30;99.90;;;;;;5014549;28;20288;-84
2023/06/19 03:23:06;;;;;;;7.60;6.90;;;21.30;99.90;;;;;;5016915;28;20189;-81
2023/06/19 03:25:34;;;;;;;7.40;6.80;;;21.30;99.90;;;;;;5019202;28;20706;-81
2023/06/19 03:28:03;;;;;;;7.23;6.63;;;21.30;99.90;;;;;;5011579;28;20282;-80
2023/06/19 03:30:31;;;;;;;7.43;6.83;;;21.30;99.90;;;;;;5005872;28;20228;-80
2023/06/19 03:32:58;;;;;;;7.70;6.73;;;21.30;99.90;;;;;;5004676;28;20194;-78
2023/06/19 03:35:40;;;;;;;7.03;6.13;;;21.30;99.90;;;;;;5009894;28;20216;-78
2023/06/19 03:38:09;;;;;;;8.40;7.20;;;21.40;99.90;;;;;;5012248;28;20264;-76
2023/06/19 03:40:36;;;;;;;7.47;6.77;;;21.40;99.90;;;;;;5012550;28;20208;-79
2023/06/19 03:43:08;;;;;;;6.80;6.20;;;21.40;99.90;;;;;;5017951;28;20192;-79
2023/06/19 03:45:36;;;;;;;7.63;6.93;;;21.30;99.90;;;;;;5014599;28;20235;-78
2023/06/19 03:48:04;;;;;;;7.77;7.07;;;21.40;99.90;;;;;;5018988;28;20554;-78
2023/06/19 03:50:31;;;;;;;6.83;6.23;;;21.40;99.90;;;;;;5012108;28;20209;-77
2023/06/19 03:52:59;;;;;;;6.80;6.20;;;21.40;99.90;;;;;;5006949;28;20201;-78
2023/06/19 03:55:26;;;;;;;6.50;5.90;;;21.40;99.90;;;;;;5015662;28;20216;-77
2023/06/19 03:57:53;;;;;;;7.27;6.53;;;21.40;99.90;;;;;;5016392;28;20204;-78
2023/06/19 04:00:20;;;;;;;7.60;7.00;;;21.40;99.90;;;;;;5020536;28;20205;-79
2023/06/19 04:02:50;;;;;;;6.53;5.87;;;21.40;99.90;;;;;;5014776;28;20205;-82
2023/06/19 04:05:17;;;;;;;6.13;5.60;;;21.50;99.90;;;;;;5020297;28;20223;-78
2023/06/19 04:07:43;;;;;;;7.30;6.60;;;21.50;99.90;;;;;;5013473;28;20197;-80
2023/06/19 04:10:12;;;;;;;6.00;5.40;;;21.50;99.90;;;;;;5012570;28;20197;-79
2023/06/19 04:12:40;;;;;;;6.60;5.90;;;21.60;99.90;;;;;;5011896;28;20208;-78
2023/06/19 04:15:08;;;;;;;6.27;5.67;;;21.60;99.90;;;;;;5017797;28;20273;-78
2023/06/19 04:17:34;;;;;;;6.33;5.73;;;21.60;99.90;;;;;;5020015;28;20192;-78
2023/06/19 04:20:01;;;;;;;6.50;5.90;;;21.50;99.90;;;;;;5017782;28;20723;-78
2023/06/19 04:22:28;;;;;;;5.77;5.27;;;21.60;99.90;;;;;;5012362;28;20197;-78
2023/06/19 04:24:55;;;;;;;6.20;5.70;;;21.50;99.90;;;;;;5014156;28;20224;-80
2023/06/19 04:27:23;;;;;;;6.67;5.70;;;21.50;99.90;;;;;;5018864;28;20200;-79
2023/06/19 04:29:52;;;;;;;6.53;5.93;;;21.50;99.90;;;;;;5011836;28;20202;-81
2023/06/19 04:32:19;;;;;;;6.03;5.53;;;21.50;99.90;;;;;;5014458;28;20203;-80
2023/06/19 04:34:46;;;;;;;6.43;5.83;;;21.50;99.90;;;;;;5010168;28;20251;-77
2023/06/19 04:37:13;;;;;;;7.33;5.50;;;21.50;99.90;;;;;;5013131;28;20197;-80
2023/06/19 04:39:40;;;;;;;6.30;5.80;;;21.50;99.90;;;;;;5013986;28;20208;-79
2023/06/19 04:42:07;;;;;;;6.90;6.20;;;21.50;99.90;;;;;;5011796;28;20194;-79
2023/06/19 04:44:35;;;;;;;7.27;5.83;;;21.50;99.90;;;;;;5020144;28;20225;-78
2023/06/19 04:47:02;;;;;;;6.10;5.60;;;21.40;99.90;;;;;;5013189;28;20225;-80
2023/06/19 04:49:30;;;;;;;7.00;6.40;;;21.30;99.90;;;;;;5015541;28;20212;-78
2023/06/19 04:51:57;;;;;;;6.43;5.80;;;21.30;99.90;;;;;;5014568;28;20200;-77
2023/06/19 04:54:25;;;;;;;6.17;5.57;;;21.20;99.90;;;;;;5012113;28;20721;-79
2023/06/19 04:56:53;;;;;;;6.40;5.90;;;21.10;99.90;;;;;;5015039;28;20204;-78
2023/06/19 04:59:19;;;;;;;6.33;5.83;;;21.20;99.90;;;;;;5011823;28;20203;-78
2023/06/19 05:01:48;;;;;;;6.53;5.70;;;21.20;99.90;;;;;;5018494;28;20557;-79
2023/06/19 05:04:14;;;;;;;6.30;5.70;;;21.30;99.90;;;;;;5007417;28;20218;-80
2023/06/19 05:06:42;;;;;;;6.00;5.47;;;21.30;99.90;;;;;;5015088;28;20197;-78
2023/06/19 05:09:09;;;;;;;6.20;5.70;;;21.30;99.90;;;;;;5016573;28;20231;-78
2023/06/19 05:11:36;;;;;;;5.67;5.20;;;21.30;99.90;;;;;;5011651;28;20259;-80
2023/06/19 05:14:03;;;;;;;6.77;5.27;;;21.30;99.90;;;;;;5013375;28;20255;-79
2023/06/19 05:16:29;;;;;;;5.07;4.70;;;21.40;99.90;;;;;;5014725;28;20216;-79
2023/06/19 05:18:58;;;;;;;5.50;5.10;;;21.30;99.90;;;;;;5016901;28;20236;-78
2023/06/19 05:21:24;;;;;;;5.40;5.00;;;21.40;99.90;;;;;;5013308;28;20260;-78
2023/06/19 05:23:52;;;;;;;5.53;5.03;;;21.40;99.90;;;;;;5013218;28;20249;-78
2023/06/19 05:26:19;;;;;;;5.70;5.20;;;21.50;99.90;;;;;;5017635;28;20192;-79
2023/06/19 05:28:46;;;;;;;5.60;5.10;;;21.60;99.90;;;;;;5008321;28;20201;-79
2023/06/19 05:31:13;;;;;;;4.97;4.57;;;21.70;99.90;;;;;;5009709;28;20228;-78
2023/06/19 05:33:40;;;;;;;5.13;4.63;;;21.80;99.90;;;;;;5012779;28;20244;-79
2023/06/19 05:36:09;;;;;;;5.03;4.63;;;21.80;99.90;;;;;;5007898;28;20271;-79
2023/06/19 05:38:35;;;;;;;5.23;4.80;;;22.00;99.90;;;;;;5012686;28;20220;-78
2023/06/19 05:41:03;;;;;;;4.87;4.47;;;22.10;99.90;;;;;;5012674;28;20204;-80
2023/06/19 05:43:30;;;;;;;5.20;4.70;;;22.20;99.90;;;;;;5014434;28;20201;-79
2023/06/19 05:45:59;;;;;;;5.57;4.70;;;22.30;99.90;;;;;;5013927;28;20192;-79
2023/06/19 05:48:25;;;;;;;4.93;4.53;;;22.50;99.90;;;;;;5003057;28;20193;-80
2023/06/19 05:50:52;;;;;;;4.33;3.87;;;22.70;99.90;;;;;;5013658;28;20200;-79
2023/06/19 05:53:20;;;;;;;3.70;3.27;;;22.80;99.90;;;;;;5011973;28;20212;-79
2023/06/19 05:55:47;;;;;;;5.40;5.00;;;22.90;99.90;;;;;;5011839;28;20236;-81
2023/06/19 05:58:14;;;;;;;5.90;5.20;;;23.00;99.90;;;;;;5009463;28;20198;-79
2023/06/19 06:00:41;;;;;;;5.80;5.30;;;23.10;99.90;;;;;;5014902;28;20263;-78
2023/06/19 06:03:08;;;;;;;4.70;4.30;;;23.20;99.90;;;;;;5018202;28;20196;-79
2023/06/19 06:05:36;;;;;;;4.90;4.47;;;23.20;99.90;;;;;;5005597;28;20208;-77
2023/06/19 06:08:03;;;;;;;5.10;4.60;;;23.30;99.90;;;;;;5013722;28;20216;-79
2023/06/19 06:10:31;;;;;;;5.07;4.20;;;23.30;99.90;;;;;;5012835;28;20201;-79
2023/06/19 06:12:58;;;;;;;4.50;4.10;;;23.30;99.90;;;;;;5012846;28;20233;-78
2023/06/19 06:15:25;;;;;;;4.90;4.50;;;23.30;99.90;;;;;;5009167;28;20221;-81
2023/06/19 06:17:51;;;;;;;5.00;4.60;;;23.40;99.90;;;;;;5017529;28;20667;-81
2023/06/19 06:20:18;;;;;;;6.43;5.80;;;23.40;99.90;;;;;;5011311;28;20629;-80
2023/06/19 06:22:45;;;;;;;5.37;4.97;;;23.50;99.90;;;;;;5014864;28;20228;-80
2023/06/19 06:25:12;;;;;;;5.37;4.97;;;23.60;99.90;;;;;;5013826;28;20267;-81
2023/06/19 06:27:40;;;;;;;5.50;5.10;;;23.80;99.90;;;;;;5014476;28;20193;-79
2023/06/19 06:30:08;;;;;;;5.93;5.40;;;24.10;99.90;;;;;;5009257;28;20258;-78
2023/06/19 06:32:35;;;;;;;5.90;5.50;;;24.30;99.90;;;;;;5006536;28;20524;-82
2023/06/19 06:35:01;;;;;;;6.23;5.70;;;24.60;99.90;;;;;;5012422;28;20236;-79
2023/06/19 06:37:28;;;;;;;5.93;5.43;;;24.80;99.90;;;;;;5008540;28;20228;-80
2023/06/19 06:39:55;;;;;;;3.70;3.37;;;24.90;99.90;;;;;;5011619;28;20197;-83
2023/06/19 06:42:22;;;;;;;3.97;3.47;;;24.90;99.90;;;;;;5011839;28;20274;-80
2023/06/19 06:44:51;;;;;;;3.53;3.03;;;24.90;99.90;;;;;;5007420;28;20232;-81
2023/06/19 06:47:17;;;;;;;3.80;3.20;;;24.90;99.90;;;;;;5009818;28;20798;-80
2023/06/19 06:49:44;;;;;;;3.40;3.10;;;25.00;99.90;;;;;;5008480;28;20224;-81
2023/06/19 06:52:11;;;;;;;6.33;5.73;;;25.20;99.90;;;;;;4998451;28;20212;-83
2023/06/19 06:54:38;;;;;;;5.30;4.80;;;25.20;99.90;;;;;;5006702;28;20216;-79
2023/06/19 06:57:05;;;;;;;3.70;3.40;;;25.40;99.90;;;;;;5002098;28;20272;-79
2023/06/19 06:59:32;;;;;;;3.70;3.33;;;25.60;99.90;;;;;;5005061;28;20197;-83
2023/06/19 07:02:00;;;;;;;4.10;3.27;;;25.70;99.90;;;;;;5008967;28;20208;-81
2023/06/19 07:04:27;;;;;;;4.10;3.37;;;25.80;99.90;;;;;;5013124;28;20274;-81
2023/06/19 07:06:54;;;;;;;4.90;3.63;;;25.90;99.90;;;;;;4996343;28;20197;-79
2023/06/19 07:09:21;;;;;;;3.87;3.57;;;26.00;99.90;;;;;;5010881;28;20208;-82
2023/06/19 07:11:49;;;;;;;4.07;3.43;;;26.10;99.90;;;;;;5013021;28;20641;-83
2023/06/19 07:14:17;;;;;;;3.63;3.33;;;26.20;99.90;;;;;;5000005;28;20252;-81
2023/06/19 07:16:45;;;;;;;3.77;3.47;;;26.20;99.90;;;;;;5008712;28;20213;-79
2023/06/19 07:19:13;;;;;;;4.00;3.60;;;26.30;99.90;;;;;;5003314;28;20201;-78
2023/06/19 07:21:41;;;;;;;4.23;3.83;;;26.30;99.90;;;;;;5016026;28;20196;-81
2023/06/19 07:24:08;;;;;;;3.60;3.30;;;26.30;99.90;;;;;;5014347;28;20213;-78
2023/06/19 07:26:35;;;;;;;3.73;3.43;;;26.30;99.90;;;;;;5019585;28;20194;-78
2023/06/19 07:29:01;;;;;;;3.73;3.43;;;26.30;99.90;;;;;;5012052;28;20201;-80
2023/06/19 07:31:28;;;;;;;4.73;3.20;;;26.20;99.90;;;;;;5015936;28;20259;-81
2023/06/19 07:33:55;;;;;;;4.13;3.47;;;26.20;99.90;;;;;;5008554;28;20640;-80
2023/06/19 07:36:23;;;;;;;3.80;3.50;;;26.20;99.90;;;;;;5015943;28;20255;-80
2023/06/19 07:38:50;;;;;;;4.07;3.67;;;26.10;99.90;;;;;;5015677;28;20200;-80
2023/06/19 07:41:17;;;;;;;3.57;3.27;;;26.00;99.90;;;;;;5017677;28;20189;-80
2023/06/19 07:43:43;;;;;;;4.20;3.77;;;26.10;99.90;;;;;;5024559;28;20228;-80
2023/06/19 07:46:10;;;;;;;3.60;3.30;;;26.30;99.90;;;;;;5023784;28;20220;-80
2023/06/19 07:48:37;;;;;;;3.90;3.43;;;26.40;99.90;;;;;;5020849;28;20201;-80
2023/06/19 07:51:04;;;;;;;4.87;4.40;;;26.90;99.90;;;;;;5017416;28;20224;-79
2023/06/19 07:53:32;;;;;;;3.70;3.40;;;27.50;99.90;;;;;;5012047;28;20205;-81
2023/06/19 07:55:59;;;;;;;6.17;5.67;;;27.90;99.90;;;;;;5012942;28;20240;-81
2023/06/19 07:58:26;;;;;;;5.87;5.40;;;28.00;99.90;;;;;;5007178;28;20259;-82
2023/06/19 08:00:52;;;;;;;5.87;5.27;;;28.00;99.90;;;;;;5016868;28;20205;-81
2023/06/19 08:03:19;;;;;;;6.20;5.60;;;27.80;99.90;;;;;;5019245;28;20208;-82
2023/06/19 08:05:46;;;;;;;5.50;5.10;;;27.70;99.90;;;;;;5018622;28;20663;-82
2023/06/19 08:08:14;;;;;;;5.77;5.27;;;27.70;99.90;;;;;;5013245;28;20220;-82
2023/06/19 08:10:42;;;;;;;5.93;5.33;;;27.60;99.90;;;;;;5009147;28;20211;-81
2023/06/19 08:13:11;;;;;;;5.70;5.30;;;27.60;99.90;;;;;;5009421;28;20193;-81
2023/06/19 08:15:37;;;;;;;6.00;5.53;;;27.60;99.90;;;;;;5006241;28;20679;-82
2023/06/19 08:18:04;;;;;;;5.83;5.33;;;27.80;99.90;;;;;;5006400;28;20197;-82
2023/06/19 08:20:31;;;;;;;5.97;5.50;;;27.90;99.90;;;;;;5007956;28;20203;-81
2023/06/19 08:22:58;;;;;;;5.90;5.40;;;28.00;99.90;;;;;;5003689;28;20194;-80
2023/06/19 08:25:25;;;;;;;5.90;5.40;;;28.20;99.90;;;;;;5001734;28;20229;-79
2023/06/19 08:27:53;;;;;;;5.63;5.03;;;28.30;99.90;;;;;;5015833;28;20200;-78
2023/06/19 08:30:20;;;;;;;5.87;5.37;;;28.70;99.90;;;;;;5009065;28;20248;-79
2023/06/19 08:32:48;;;;;;;5.73;5.20;;;28.90;99.90;;;;;;5013500;28;20201;-79
2023/06/19 08:35:15;;;;;;;5.97;5.50;;;29.00;99.90;;;;;;5013036;28;20252;-80
2023/06/19 08:37:42;;;;;;;5.60;5.20;;;29.60;99.90;;;;;;5007466;28;20205;-81
2023/06/19 08:40:10;;;;;;;5.37;4.97;;;30.40;99.40;;;;;;5015816;28;20247;-80
2023/06/19 08:42:36;;;;;;;5.50;5.10;;;31.30;97.60;;;;;;5009862;28;20205;-81
2023/06/19 08:45:06;;;;;;;5.63;5.23;;;31.80;95.90;;;;;;5020835;28;20233;-81
2023/06/19 08:47:34;;;;;;;4.87;4.57;;;32.30;94.70;;;;;;5009371;28;20201;-80
2023/06/19 08:50:01;;;;;;;4.90;4.60;;;32.00;94.30;;;;;;5011672;28;20276;-82
2023/06/19 08:52:28;;;;;;;5.70;5.30;;;31.60;93.70;;;;;;5001287;28;20205;-80
2023/06/19 08:54:55;;;;;;;5.97;5.47;;;31.30;94.10;;;;;;5002752;28;20221;-81
2023/06/19 08:57:21;;;;;;;5.60;5.20;;;31.10;94.50;;;;;;4997278;28;20280;-81
2023/06/19 08:59:52;;;;;;;5.40;5.00;;;31.20;94.10;;;;;;5002429;28;20553;-80
2023/06/19 09:02:20;;;;;;;5.40;5.00;;;31.30;94.30;;;;;;5006328;28;20189;-83
2023/06/19 09:04:47;;;;;;;5.53;5.13;;;31.30;93.90;;;;;;5013814;28;20212;-81
2023/06/19 09:07:14;;;;;;;5.35;4.95;;;31.70;93.90;;;;;;5004518;28;20580;-82
2023/06/19 09:09:47;;;;;;;5.22;4.82;;;31.90;93.50;;;;;;5013403;28;20206;-81
2023/06/19 09:12:15;;;;;;;5.50;5.10;;;32.20;93.20;;;;;;5000939;28;20664;-81
2023/06/19 09:14:46;;;;;;;5.30;4.90;;;32.10;93.00;;;;;;5005122;28;20228;-81
2023/06/19 09:17:17;;;;;;;5.28;4.75;;;32.30;92.70;;;;;;5008114;28;20212;-83
2023/06/19 09:19:50;;;;;;;5.13;4.72;;;32.50;92.60;;;;;;5001784;28;20201;-81
2023/06/19 09:22:19;;;;;;;4.70;4.30;;;32.80;92.60;;;;;;5001538;28;20570;-81
2023/06/19 09:24:46;;;;;;;5.00;4.60;;;33.00;92.00;;;;;;5005722;28;20333;-81
2023/06/19 09:27:14;;;;;;;5.05;4.68;;;33.20;91.80;;;;;;5000346;28;20217;-81
2023/06/19 09:29:42;;;;;;;5.50;5.00;;;33.40;91.30;;;;;;4996702;28;20263;-81
2023/06/19 09:32:16;;;;;;;5.72;5.30;;;33.70;91.30;;;;;;5004691;28;20205;-82
2023/06/19 09:34:43;;;;;;;5.30;4.90;;;33.70;90.90;;;;;;5008237;28;20216;-83
2023/06/19 09:37:11;;;;;;;5.38;4.93;;;33.60;90.80;;;;;;5006021;28;20240;-82
2023/06/19 09:39:39;;;;;;;5.03;4.68;;;33.70;90.80;;;;;;5004200;28;20212;-81
2023/06/19 09:42:09;;;;;;;5.45;5.05;;;33.70;90.50;;;;;;4998383;28;20193;-81
2023/06/19 09:44:41;;;;;;;5.45;5.05;;;33.90;90.50;;;;;;5002398;28;20236;-82
2023/06/19 09:47:17;;;;;;;5.53;5.13;;;33.90;90.20;;;;;;5005498;28;20814;-83
2023/06/19 09:49:48;;;;;;;5.03;4.70;;;33.60;90.30;;;;;;5004841;28;20232;-82
2023/06/19 09:52:17;;;;;;;5.50;5.10;;;33.20;87.30;;;;;;5002443;28;20212;-82
2023/06/19 09:54:44;;;;;;;5.10;4.65;;;33.00;87.10;;;;;;5007414;28;20247;-82
2023/06/19 09:57:11;;;;;;;5.10;4.60;;;33.00;86.00;;;;;;5005435;28;20226;-81
2023/06/19 09:59:40;;;;;;;4.82;4.53;;;33.30;87.60;;;;;;4995495;28;20193;-82
2023/06/19 10:02:07;;;;;;;4.55;4.25;;;33.30;85.90;;;;;;4999486;28;20259;-82
2023/06/19 10:04:45;;;;;;;5.15;4.72;;;33.30;84.40;;;;;;5004246;28;20722;-81
2023/06/19 10:07:18;;;;;;;5.10;4.70;;;33.10;87.20;;;;;;5003158;28;20198;-82
2023/06/19 10:09:59;;;;;;;5.05;4.63;;;33.30;85.90;;;;;;5002589;28;20209;-82
2023/06/19 10:12:40;;;;;;;5.05;4.63;;;33.40;86.50;;;;;;5005683;28;20197;-80
2023/06/19 10:15:16;;;;;;;4.68;4.38;;;33.20;85.50;;;;;;5005964;28;20216;-82
2023/06/19 10:17:48;;;;;;;4.95;4.63;;;33.00;85.50;;;;;;5001765;28;20279;-82
2023/06/19 10:20:31;;;;;;;5.10;4.80;;;33.10;86.60;;;;;;5006915;28;20201;-81
2023/06/19 10:23:05;;;;;;;4.95;4.65;;;32.90;86.90;;;;;;5000066;28;20193;-81
2023/06/19 10:25:34;;;;;;;4.90;4.50;;;33.00;86.50;;;;;;5002096;28;20224;-80
2023/06/19 10:28:05;;;;;;;4.93;4.63;;;33.00;86.30;;;;;;5000400;28;20194;-83
2023/06/19 10:30:34;;;;;;;5.20;4.80;;;33.10;86.60;;;;;;5005682;28;20200;-81
2023/06/19 10:33:03;;;;;;;5.30;4.90;;;33.20;86.00;;;;;;5005137;28;20228;-81
2023/06/19 10:35:38;;;;;;;5.00;4.60;;;33.30;86.80;;;;;;5005494;28;20231;-83
2023/06/19 10:38:07;;;;;;;5.10;4.70;;;33.20;85.60;;;;;;4998577;28;20219;-82
2023/06/19 10:40:33;;;;;;;5.05;4.65;;;32.90;85.60;;;;;;5002721;28;20193;-81
2023/06/19 10:43:00;;;;;;;5.40;4.90;;;32.80;85.20;;;;;;4998826;28;20281;-82
2023/06/19 10:45:28;;;;;;;5.03;4.65;;;32.30;86.20;;;;;;5003793;28;20302;-80
2023/06/19 10:47:56;;;;;;;5.65;5.15;;;32.30;86.30;;;;;;5000498;28;20579;-81
2023/06/19 10:50:23;;;;;;;5.28;4.88;;;32.50;86.50;;;;;;5006942;28;20228;-80
2023/06/19 10:52:54;;;;;;;5.20;4.80;;;32.70;86.60;;;;;;5010345;28;20676;-82
2023/06/19 10:55:23;;;;;;;4.72;4.43;;;32.90;85.60;;;;;;5003629;28;20235;-82
2023/06/19 10:57:50;;;;;;;4.88;4.57;;;33.00;85.70;;;;;;5008186;28;20217;-81
2023/06/19 11:00:25;;;;;;;5.22;4.85;;;33.20;85.20;;;;;;5001894;28;20266;-81
2023/06/19 11:02:52;;;;;;;5.53;5.13;;;33.10;85.00;;;;;;5001122;28;20255;-80
2023/06/19 11:05:21;;;;;;;5.22;4.82;;;32.90;84.60;;;;;;4999154;28;20225;-82
2023/06/19 11:07:52;;;;;;;5.50;5.00;;;32.70;84.70;;;;;;5000501;28;20255;-82
2023/06/19 11:10:24;;;;;;;4.88;4.57;;;32.50;85.40;;;;;;4999520;28;20201;-82
2023/06/19 11:12:54;;;;;;;4.70;4.32;;;32.20;85.60;;;;;;5004932;28;20193;-81
2023/06/19 11:15:28;;;;;;;5.10;4.70;;;31.80;86.60;;;;;;5008370;28;20680;-80
2023/06/19 11:17:55;;;;;;;5.22;4.72;;;31.60;87.50;;;;;;4997024;28;20279;-80
2023/06/19 11:20:22;;;;;;;5.45;5.00;;;31.80;87.90;;;;;;5005769;28;20209;-81
2023/06/19 11:22:55;;;;;;;4.80;4.50;;;31.70;87.30;;;;;;5004487;28;20205;-83
2023/06/19 11:25:23;;;;;;;5.15;4.78;;;31.70;87.40;;;;;;5005428;28;20225;-81
2023/06/19 11:27:51;;;;;;;6.05;5.03;;;31.80;86.70;;;;;;5000126;28;20619;-81
2023/06/19 11:30:20;;;;;;;5.03;4.70;;;32.00;86.40;;;;;;5003829;28;20197;-81
2023/06/19 11:32:48;;;;;;;5.10;4.80;;;31.80;86.70;;;;;;5007825;28;20579;-81
2023/06/19 11:35:17;;;;;;;5.30;4.90;;;31.80;85.70;;;;;;4999636;28;20295;-82
2023/06/19 11:37:44;;;;;;;5.20;4.80;;;31.60;86.80;;;;;;5001635;28;20221;-80
2023/06/19 11:40:14;;;;;;;5.50;5.10;;;31.30;86.50;;;;;;5001722;28;20201;-83
2023/06/19 11:42:48;;;;;;;5.53;5.13;;;31.30;88.10;;;;;;5004550;28;20201;-81
2023/06/19 11:45:15;;;;;;;5.90;5.50;;;31.20;87.30;;;;;;5004885;28;20232;-80
2023/06/19 11:47:43;;;;;;;5.93;5.47;;;31.20;87.40;;;;;;5002178;28;20255;-84
2023/06/19 11:50:11;;;;;;;5.23;4.83;;;31.20;87.60;;;;;;5011818;28;20224;-81
2023/06/19 11:52:38;;;;;;;5.70;5.30;;;31.20;88.20;;;;;;4999400;28;20210;-82
2023/06/19 11:55:06;;;;;;;5.47;5.00;;;31.40;87.60;;;;;;5002217;28;20696;-81
2023/06/19 11:57:33;;;;;;;5.23;4.83;;;31.50;85.60;;;;;;5002670;28;20251;-81
2023/06/19 12:00:06;;;;;;;5.20;4.70;;;31.70;86.10;;;;;;5000377;28;20193;-81
2023/06/19 12:02:39;;;;;;;5.20;4.80;;;31.80;86.10;;;;;;5009357;28;20284;-81
2023/06/19 12:05:07;;;;;;;5.53;5.00;;;31.80;84.20;;;;;;5003282;28;20225;-80
2023/06/19 12:07:34;;;;;;;5.47;4.97;;;32.00;84.00;;;;;;5007049;28;20200;-82
2023/06/19 12:10:02;;;;;;;5.63;5.13;;;32.10;84.90;;;;;;5008837;28;20228;-81
2023/06/19 12:12:30;;;;;;;5.10;4.80;;;32.20;85.10;;;;;;5011408;28;20254;-83
2023/06/19 12:14:57;;;;;;;5.03;4.73;;;32.10;83.90;;;;;;4999191;28;20215;-81
2023/06/19 12:17:26;;;;;;;5.35;4.95;;;32.20;84.20;;;;;;5007484;28;20362;-81
2023/06/19 12:19:53;;;;;;;5.10;4.80;;;32.10;83.20;;;;;;5004202;28;20284;-80
2023/06/19 12:22:19;;;;;;;4.77;4.47;;;32.00;84.40;;;;;;5000016;28;20197;-81
2023/06/19 12:24:46;;;;;;;5.60;5.20;;;32.10;82.70;;;;;;5005281;28;20216;-80
2023/06/19 12:27:13;;;;;;;5.10;4.70;;;31.80;83.70;;;;;;5003668;28;20216;-80
2023/06/19 12:29:40;;;;;;;5.00;4.70;;;31.80;83.40;;;;;;4998792;28;20197;-81
2023/06/19 12:32:08;;;;;;;5.00;4.60;;;31.80;85.00;;;;;;4997142;28;20201;-81
2023/06/19 12:34:36;;;;;;;4.78;4.47;;;31.90;85.10;;;;;;5009790;28;20224;-82
2023/06/19 12:37:03;;;;;;;4.90;4.60;;;32.00;84.10;;;;;;5000873;28;20212;-81
2023/06/19 12:39:31;;;;;;;5.50;4.90;;;32.00;83.70;;;;;;5008551;28;20731;-79
2023/06/19 12:41:58;;;;;;;5.30;4.90;;;32.00;82.20;;;;;;5002911;28;20197;-80
2023/06/19 12:44:25;;;;;;;5.40;4.90;;;31.90;83.10;;;;;;5002598;28;20228;-80
2023/06/19 12:46:52;;;;;;;5.13;4.83;;;31.90;84.40;;;;;;5012479;28;20196;-81
2023/06/19 12:49:19;;;;;;;5.40;5.00;;;32.00;83.50;;;;;;5003527;28;20256;-82
2023/06/19 12:51:51;;;;;;;5.30;4.90;;;31.90;83.80;;;;;;5005060;28;20205;-80